Terminal Aerodrome Forecast
Issued by NWS Huntsville, AL

Home | Current Version | Previous Version | Text Only | Print | Product List | Glossary On
Versions: 1 2 3 4 5 6 7 8 9 10 11 12 13 14 15 16 17 18 19 20 21 22 23 24 25 26 27 28 29 30 31 32 33 34
000
FTUS44 KHUN 271138
TAFHSV
TAF
KHSV 271138Z 2712/2812 18007KT P6SM BKN015 OVC150
      TEMPO 2712/2714 SCT015 BKN040
     FM271700 19010G17KT P6SM VCTS BKN020CB
      TEMPO 2720/2724 VRB20G30KT 2SM TSRA OVC015CB
     FM280000 19010G18KT 6SM -SHRA VCTS SCT025CB BKN040
     FM280600 22007KT P6SM BKN025=

USA.gov is the U.S. government's official web portal to all federal, state and local government web resources and services.